createdAt,value
2022-12-08T08:59:03.019Z,28.40
2022-12-08T09:01:30.215Z,28.63
2022-12-08T09:03:57.183Z,27.90
2022-12-08T09:06:24.600Z,28.10
2022-12-08T09:08:52.014Z,28.80
2022-12-08T09:11:18.987Z,26.13
2022-12-08T09:13:49.528Z,27.75
2022-12-08T09:16:17.241Z,28.23
2022-12-08T09:18:44.153Z,28.17
2022-12-08T09:21:14.954Z,28.77
2022-12-08T09:23:42.143Z,28.25
2022-12-08T09:26:09.600Z,30.20
2022-12-08T09:28:36.408Z,27.75
2022-12-08T09:31:03.501Z,26.20
2022-12-08T09:33:30.571Z,26.83
2022-12-08T09:36:01.396Z,26.70
2022-12-08T09:38:28.093Z,25.75
2022-12-08T09:40:55.142Z,26.75
2022-12-08T09:43:42.325Z,24.85
2022-12-08T09:46:11.358Z,23.25
2022-12-08T09:48:45.373Z,22.15
2022-12-08T09:51:14.747Z,22.00
2022-12-08T09:53:52.888Z,21.38
2022-12-08T09:56:28.614Z,20.08
2022-12-08T09:59:16.453Z,20.98
2022-12-08T10:01:43.901Z,19.35
2022-12-08T10:04:23.634Z,20.85
2022-12-08T10:07:28.665Z,23.20
2022-12-08T10:10:16.815Z,21.63
2022-12-08T10:12:51.407Z,21.02
2022-12-08T10:15:55.262Z,20.38
2022-12-08T10:18:33.770Z,21.23
2022-12-08T10:21:16.733Z,20.85
2022-12-08T10:23:47.965Z,20.98
2022-12-08T10:26:18.028Z,21.08
2022-12-08T10:28:45.904Z,21.60
2022-12-08T10:31:25.333Z,20.27
2022-12-08T10:34:14.307Z,22.13
2022-12-08T10:36:54.661Z,22.27
2022-12-08T10:39:43.981Z,21.33
2022-12-08T10:42:13.862Z,19.55
2022-12-08T10:45:13.959Z,23.38
2022-12-08T10:47:57.493Z,20.20
2022-12-08T10:50:32.595Z,22.15
2022-12-08T10:53:13.114Z,20.58
2022-12-08T10:55:42.098Z,20.48
2022-12-08T10:58:26.023Z,20.73
2022-12-08T11:01:02.336Z,21.58
2022-12-08T11:03:46.338Z,22.23
2022-12-08T11:06:26.994Z,21.38
2022-12-08T11:08:59.148Z,20.52
2022-12-08T11:11:47.364Z,19.50
2022-12-08T11:14:32.190Z,20.75
2022-12-08T11:17:24.760Z,16.98
2022-12-08T11:20:09.201Z,18.60
2022-12-08T11:22:45.902Z,19.17
2022-12-08T11:25:27.959Z,18.60
2022-12-08T11:28:03.984Z,18.75
2022-12-08T11:30:46.589Z,18.17
2022-12-08T11:33:28.471Z,18.88
2022-12-08T11:36:05.178Z,19.35
2022-12-08T11:38:35.698Z,17.35
2022-12-08T11:41:25.224Z,17.00
2022-12-08T11:44:13.400Z,16.73
2022-12-08T11:46:55.050Z,16.77
2022-12-08T11:49:43.961Z,16.75
2022-12-08T11:52:45.405Z,17.30
2022-12-08T11:55:37.578Z,17.42
2022-12-08T11:58:17.876Z,15.63
2022-12-08T12:00:58.725Z,15.18
2022-12-08T12:04:12.191Z,15.23
2022-12-08T12:07:35.382Z,15.25
2022-12-08T12:10:12.870Z,14.32
2022-12-08T12:13:15.244Z,17.40
2022-12-08T12:16:26.205Z,16.15
2022-12-08T12:19:01.559Z,17.42
2022-12-08T12:21:51.631Z,15.75
2022-12-08T12:24:36.205Z,16.30
2022-12-08T12:27:20.897Z,16.98
2022-12-08T12:32:46.124Z,17.90
2022-12-08T12:35:53.091Z,17.75
2022-12-08T12:39:00.353Z,16.23
2022-12-08T12:41:52.560Z,21.67
2022-12-08T12:44:44.664Z,16.95
2022-12-08T12:47:44.186Z,16.27
2022-12-08T12:50:39.096Z,18.20
2022-12-08T12:53:29.473Z,16.45
2022-12-08T12:56:12.139Z,15.43
2022-12-08T12:59:25.128Z,14.48
2022-12-08T13:01:56.770Z,14.80
2022-12-08T13:05:35.513Z,13.95
2022-12-08T13:08:37.449Z,13.18
2022-12-08T13:11:34.632Z,14.43
2022-12-08T13:14:29.561Z,13.32
2022-12-08T13:20:00.226Z,13.40
2022-12-08T13:23:01.423Z,12.60
2022-12-08T13:25:42.967Z,12.43
2022-12-08T13:28:41.801Z,13.55
2022-12-08T13:34:35.485Z,13.30
2022-12-08T13:37:19.198Z,11.43
2022-12-08T13:50:05.848Z,11.52
2022-12-08T13:57:29.380Z,10.10
2022-12-08T14:00:08.336Z,11.63
2022-12-08T14:02:48.193Z,11.50
2022-12-08T14:05:19.116Z,11.23
2022-12-08T14:07:56.077Z,10.80
2022-12-08T14:10:32.152Z,11.18
2022-12-08T14:13:06.414Z,12.07
2022-12-08T14:15:38.569Z,12.80
2022-12-08T14:18:29.253Z,10.52
2022-12-08T14:21:27.880Z,10.32
2022-12-08T14:24:05.476Z,11.60
2022-12-08T14:26:43.455Z,12.48
2022-12-08T14:29:37.320Z,11.20
2022-12-08T14:32:29.561Z,10.90
2022-12-08T14:35:22.278Z,10.90
2022-12-08T14:37:56.062Z,10.95
2022-12-08T14:40:44.007Z,10.90
2022-12-08T14:43:16.480Z,12.38
2022-12-08T14:45:43.374Z,12.30
2022-12-08T14:48:28.388Z,12.48
2022-12-08T14:51:26.604Z,13.32
2022-12-08T14:54:00.166Z,12.02
2022-12-08T14:56:28.813Z,12.50
2022-12-08T14:59:14.581Z,13.23
2022-12-08T15:01:43.021Z,13.77
2022-12-08T15:04:24.326Z,13.10
2022-12-08T15:07:09.974Z,13.77
2022-12-08T15:09:47.648Z,13.38
2022-12-08T15:12:36.003Z,14.80
2022-12-08T15:15:13.092Z,14.00
2022-12-08T15:20:34.548Z,13.88
2022-12-08T15:23:02.610Z,15.02
2022-12-08T15:25:30.084Z,12.80
2022-12-08T15:27:57.991Z,13.52
2022-12-08T15:30:28.732Z,13.35
2022-12-08T15:32:56.084Z,13.60
2022-12-08T15:35:22.891Z,12.55
2022-12-08T15:37:49.716Z,13.80
2022-12-08T15:40:19.578Z,15.65
2022-12-08T15:42:46.587Z,15.93
2022-12-08T15:45:23.265Z,16.30
2022-12-08T15:47:51.214Z,17.08
2022-12-08T15:50:21.146Z,15.95
2022-12-08T15:52:51.410Z,16.92
2022-12-08T15:55:31.128Z,17.92
2022-12-08T16:00:57.427Z,15.90
2022-12-08T16:09:16.356Z,14.38
2022-12-08T16:12:07.134Z,14.32
2022-12-08T16:17:21.504Z,14.73
2022-12-08T16:19:49.360Z,13.95
2022-12-08T16:25:18.163Z,13.68
2022-12-08T16:28:12.283Z,14.25
2022-12-08T16:30:33.379Z,15.57
2022-12-08T16:33:00.111Z,15.10
2022-12-08T16:35:26.852Z,17.30
2022-12-08T16:37:53.801Z,16.40
2022-12-08T16:40:20.990Z,16.30
2022-12-08T16:42:49.778Z,14.48
2022-12-08T16:45:18.260Z,14.77
2022-12-08T16:47:47.820Z,15.95
2022-12-08T16:50:18.236Z,16.40
2022-12-08T16:52:45.625Z,19.02
2022-12-08T16:55:14.896Z,17.27
2022-12-08T16:57:41.753Z,14.68
2022-12-08T17:00:15.136Z,13.63
2022-12-08T17:02:42.469Z,13.45
2022-12-08T17:05:13.688Z,12.25
2022-12-08T17:07:41.403Z,13.50
2022-12-08T17:10:10.452Z,14.48
2022-12-08T17:12:37.253Z,13.38
2022-12-08T17:15:05.907Z,13.65
2022-12-08T17:17:35.356Z,14.52
2022-12-08T17:20:14.729Z,15.70
2022-12-08T17:22:41.618Z,16.95
2022-12-08T17:25:11.032Z,21.08
2022-12-08T17:27:38.224Z,22.48
2022-12-08T17:30:06.584Z,45.90
2022-12-08T17:32:33.407Z,51.67
2022-12-08T17:35:00.180Z,41.88
2022-12-08T17:37:26.852Z,29.85
2022-12-08T17:39:53.591Z,31.17
2022-12-08T17:42:20.496Z,35.15
2022-12-08T17:44:47.266Z,36.95
